PASY Airport Information

Runway Information
Runway 10 Length 10000 ft width 150 ft
Elevation 98 ft Threshold 0 ft Heading 107
Runway 28 Length 10000 ft Width 150 ft
Elevation 87 ft Threshold 0 ft Heading 287
Airport Frequencies
Type ASOS Name ASOS Frequency 135.65 MHZ
Type CNTR Name ANCHORAGE Frequency 119.1 MHZ
Type CTAF Name CTAF Frequency 127.2 MHZ
Airport Navaids
Type VORTAC Name Shemya Frequency 109000 KHZ
Type NDB Name Shemya Frequency 403 KHZ
Airport Weather Information & NOTAM
ADDS - METARS form results

(1053 UTC 19 September 2018)
Data provider http://aviationweather.gov/metar/data/
 
METAR text: PASY 191028Z AUTO 23006KT 2 3/4SM BR OVC016 10/09 A3011 RMK AO2 SLP200
Conditions at: PASY (EARECKSON/SHEMYA, AK, US) observed 1028 UTC 19 September 2018
Temperature: 10.0°C (50°F)
Dewpoint: 9.0°C (48°F) [RH = 93%]
Pressure (altimeter): 30.11 inches Hg (1019.7 mb)
[Sea-level pressure: 1020.0 mb]
Winds: from the SW (230 degrees) at 7 MPH (6 knots; 3.1 m/s)
Visibility: 2.75 miles (4.43 km)
Ceiling: 1600 feet AGL
Clouds: overcast cloud deck at 1600 feet AGL
Weather: BR  (mist)

METAR text: PASY 191008Z AUTO 24010KT 3SM BR OVC018 10/09 A3011 RMK AO2 SLP200
Conditions at: PASY (EARECKSON/SHEMYA, AK, US) observed 1008 UTC 19 September 2018
Temperature: 10.0°C (50°F)
Dewpoint: 9.0°C (48°F) [RH = 93%]
Pressure (altimeter): 30.11 inches Hg (1019.7 mb)
[Sea-level pressure: 1020.0 mb]
Winds: from the WSW (240 degrees) at 12 MPH (10 knots; 5.1 m/s)
Visibility: 3 miles ( 5 km)
Ceiling: 1800 feet AGL
Clouds: overcast cloud deck at 1800 feet AGL
Weather: BR  (mist)

METAR text: PASY 190958Z AUTO 24007KT 2 3/4SM BR FEW012 OVC018 10/09 A3011 RMK AO2 SLP200 T00990092 401100097
Conditions at: PASY (EARECKSON/SHEMYA, AK, US) observed 0958 UTC 19 September 2018
Temperature: 9.9°C (50°F)
Dewpoint: 9.2°C (49°F) [RH = 95%]
Pressure (altimeter): 30.11 inches Hg (1019.7 mb)
[Sea-level pressure: 1020.0 mb]
Winds: from the WSW (240 degrees) at 8 MPH (7 knots; 3.6 m/s)
Visibility: 2.75 miles (4.43 km)
Ceiling: 1800 feet AGL
Clouds: few clouds at 1200 feet AGL
overcast cloud deck at 1800 feet AGL
Weather: BR  (mist)

Forecast for: AMD
Text: TAF AMD PASY 190840Z 1908/2012 22009KT 3200 BR OVC019 600903 QNH3000INS
Forecast period: 0800 to 1100 UTC 19 September 2018
Forecast type: FROM: standard forecast or significant change
Winds: from the SW (220 degrees) at 10 MPH (9 knots; 4.6 m/s)
Visibility: 1.99 miles (3.20 km)
Ceiling: 1900 feet AGL
Clouds: overcast cloud deck at 1900 feet AGL
Weather: BR  (mist)
Text: TEMPO 1908/1911 OVC020
Forecast period: 0800 to 1100 UTC 19 September 2018
Forecast type: TEMPORARY: The following changes expected for less than half the time period
Visibility: missing
Ceiling: 2000 feet AGL
Clouds: overcast cloud deck at 2000 feet AGL
Weather: no significant weather forecast for this period
Text: BECMG 1911/1912 23015KT 4800 BR OVC015 QNH3006INS
Forecast period: 1100 to 1700 UTC 19 September 2018
Forecast type: BECOMING: Conditions expected to become as follows by 1200 UTC 19 September 2018
Winds: from the SW (230 degrees) at 17 MPH (15 knots; 7.7 m/s)
Visibility: 2.98 miles (4.80 km)
Ceiling: 1500 feet AGL
Clouds: overcast cloud deck at 1500 feet AGL
Weather: BR  (mist)
Text: BECMG 1917/1918 36009KT 4800 BR OVC015 QNH3000INS TX11/2004Z TN08/1914Z
Forecast period: 1700 UTC 19 September 2018 to 1200 UTC 20 September 2018
Forecast type: BECOMING: Conditions expected to become as follows by 1800 UTC 19 September 2018
Winds: from the N (360 degrees) at 10 MPH (9 knots; 4.6 m/s)
Visibility: 2.98 miles (4.80 km)
Ceiling: 1500 feet AGL
Clouds: overcast cloud deck at 1500 feet AGL
Weather: BR  (mist)